createdAt,value
2022-09-12T00:00:05.107Z,16.35
2022-09-12T00:02:40.836Z,16.41
2022-09-12T00:05:08.936Z,16.46
2022-09-12T00:07:36.776Z,16.48
2022-09-12T00:10:05.325Z,16.51
2022-09-12T00:12:33.131Z,16.50
2022-09-12T00:15:00.927Z,16.42
2022-09-12T00:17:28.796Z,16.46
2022-09-12T00:19:58.795Z,16.51
2022-09-12T00:22:26.639Z,16.50
2022-09-12T00:24:54.440Z,16.38
2022-09-12T00:27:22.226Z,16.25
2022-09-12T00:29:50.099Z,16.26
2022-09-12T00:32:17.914Z,16.24
2022-09-12T00:34:45.768Z,16.25
2022-09-12T00:37:14.970Z,16.21
2022-09-12T00:39:42.780Z,16.22
2022-09-12T00:42:11.494Z,16.23
2022-09-12T00:44:57.254Z,16.03
2022-09-12T00:47:27.958Z,16.01
2022-09-12T00:50:06.401Z,15.97
2022-09-12T00:52:42.770Z,15.79
2022-09-12T00:55:17.565Z,15.84
2022-09-12T00:57:53.255Z,15.89
2022-09-12T01:00:23.879Z,15.92
2022-09-12T01:02:54.829Z,15.83
2022-09-12T01:05:24.524Z,15.89
2022-09-12T01:07:54.128Z,15.86
2022-09-12T01:10:22.152Z,15.90
2022-09-12T01:12:50.073Z,15.85
2022-09-12T01:15:18.222Z,15.95
2022-09-12T01:18:04.483Z,15.97
2022-09-12T01:20:51.382Z,15.98
2022-09-12T01:23:49.372Z,15.91
2022-09-12T01:26:47.456Z,15.94
2022-09-12T01:29:36.309Z,15.92
2022-09-12T01:32:12.020Z,15.93
2022-09-12T01:34:48.457Z,15.82
2022-09-12T01:37:25.984Z,15.74
2022-09-12T01:40:03.098Z,15.55
2022-09-12T01:42:35.708Z,15.44
2022-09-12T01:45:13.236Z,15.49
2022-09-12T01:47:47.097Z,15.66
2022-09-12T01:50:20.460Z,15.79
2022-09-12T01:52:53.753Z,15.96
2022-09-12T01:55:25.977Z,16.04
2022-09-12T01:57:57.699Z,16.04
2022-09-12T02:00:25.899Z,16.00
2022-09-12T02:03:02.921Z,15.94
2022-09-12T02:05:33.340Z,15.98
2022-09-12T02:08:08.123Z,16.00
2022-09-12T02:10:43.280Z,15.90
2022-09-12T02:13:14.811Z,15.92
2022-09-12T02:15:48.633Z,15.94
2022-09-12T02:18:19.397Z,16.03
2022-09-12T02:20:49.557Z,16.12
2022-09-12T02:23:23.232Z,16.10
2022-09-12T02:25:55.652Z,15.93
2022-09-12T02:28:28.417Z,15.87
2022-09-12T02:31:07.619Z,15.83
2022-09-12T02:33:45.011Z,15.86
2022-09-12T02:36:24.031Z,15.85
2022-09-12T02:38:52.364Z,15.89
2022-09-12T02:41:21.696Z,15.92
2022-09-12T02:43:51.461Z,15.95
2022-09-12T02:46:23.505Z,15.85
2022-09-12T02:48:53.040Z,15.80
2022-09-12T02:51:23.744Z,15.72
2022-09-12T02:53:52.360Z,15.58
2022-09-12T02:56:25.868Z,15.59
2022-09-12T02:58:55.540Z,15.61
2022-09-12T03:01:33.680Z,15.62
2022-09-12T03:04:27.617Z,15.64
2022-09-12T03:07:12.373Z,15.68
2022-09-12T03:09:46.803Z,15.64
2022-09-12T03:12:35.065Z,15.66
2022-09-12T03:15:19.358Z,15.75
2022-09-12T03:18:04.737Z,15.80
2022-09-12T03:20:44.386Z,15.89
2022-09-12T03:23:23.017Z,15.94
2022-09-12T03:25:57.662Z,16.00
2022-09-12T03:28:25.889Z,16.05
2022-09-12T03:30:56.506Z,16.05
2022-09-12T03:33:26.389Z,16.03
2022-09-12T03:35:56.258Z,15.96
2022-09-12T03:38:24.191Z,15.86
2022-09-12T03:40:54.802Z,15.78
2022-09-12T03:43:23.041Z,15.62
2022-09-12T03:45:53.323Z,15.50
2022-09-12T03:48:21.285Z,15.52
2022-09-12T03:50:49.057Z,15.52
2022-09-12T03:53:18.382Z,15.52
2022-09-12T03:55:46.341Z,15.47
2022-09-12T03:58:14.189Z,15.45
2022-09-12T04:00:43.022Z,15.51
2022-09-12T04:03:10.837Z,15.66
2022-09-12T04:05:38.633Z,15.76
2022-09-12T04:08:06.630Z,15.74
2022-09-12T04:10:35.780Z,15.83
2022-09-12T04:13:03.621Z,15.88
2022-09-12T04:15:31.400Z,15.90
2022-09-12T04:18:03.656Z,15.84
2022-09-12T04:20:33.455Z,15.79
2022-09-12T04:23:01.269Z,15.70
2022-09-12T04:25:31.328Z,15.50
2022-09-12T04:28:00.533Z,15.36
2022-09-12T04:30:28.426Z,15.29
2022-09-12T04:32:56.204Z,15.20
2022-09-12T04:35:23.993Z,15.12
2022-09-12T04:37:51.836Z,15.09
2022-09-12T04:40:19.808Z,15.14
2022-09-12T04:42:47.560Z,15.09
2022-09-12T04:45:16.763Z,15.04
2022-09-12T04:47:46.442Z,15.02
2022-09-12T04:50:14.864Z,15.01
2022-09-12T04:52:42.832Z,15.02
2022-09-12T04:55:10.927Z,15.02
2022-09-12T04:57:38.804Z,15.11
2022-09-12T05:00:07.904Z,15.17
2022-09-12T05:02:37.079Z,15.25
2022-09-12T05:05:05.308Z,15.34
2022-09-12T05:07:33.161Z,15.42
2022-09-12T05:10:01.170Z,15.48
2022-09-12T05:12:28.993Z,15.57
2022-09-12T05:14:56.811Z,15.71
2022-09-12T05:17:24.584Z,15.83
2022-09-12T05:19:53.701Z,15.92
2022-09-12T05:22:21.492Z,15.98
2022-09-12T05:24:50.657Z,16.12
2022-09-12T05:27:18.826Z,16.23
2022-09-12T05:29:46.641Z,16.30
2022-09-12T05:32:14.479Z,16.40
2022-09-12T05:34:42.290Z,16.42
2022-09-12T05:37:13.023Z,16.40
2022-09-12T05:39:41.183Z,16.37
2022-09-12T05:42:08.999Z,16.35
2022-09-12T05:44:37.042Z,16.35
2022-09-12T05:47:05.107Z,16.38
2022-09-12T05:49:32.880Z,16.43
2022-09-12T05:52:00.640Z,16.49
2022-09-12T05:54:31.643Z,16.43
2022-09-12T05:56:59.945Z,16.51
2022-09-12T05:59:28.450Z,16.57
2022-09-12T06:01:56.354Z,16.64
2022-09-12T06:04:24.923Z,16.65
2022-09-12T06:06:52.756Z,16.71
2022-09-12T06:09:20.727Z,16.74
2022-09-12T06:11:49.931Z,16.74
2022-09-12T06:14:19.769Z,16.88
2022-09-12T06:16:48.570Z,16.93
2022-09-12T06:19:18.649Z,16.99
2022-09-12T06:21:47.592Z,17.05
2022-09-12T06:24:15.426Z,17.10
2022-09-12T06:26:43.738Z,17.09
2022-09-12T06:29:13.243Z,17.26
2022-09-12T06:31:42.442Z,17.35
2022-09-12T06:34:12.537Z,17.44
2022-09-12T06:36:42.467Z,17.48
2022-09-12T06:39:13.350Z,17.56
2022-09-12T06:41:44.033Z,17.59
2022-09-12T06:44:16.539Z,17.45
2022-09-12T06:46:45.208Z,17.44
2022-09-12T06:49:13.462Z,17.52
2022-09-12T06:51:43.058Z,17.57
2022-09-12T06:54:13.196Z,17.59
2022-09-12T06:56:41.026Z,17.65
2022-09-12T06:59:08.888Z,17.69
2022-09-12T07:01:38.240Z,17.54
2022-09-12T07:04:06.434Z,17.48
2022-09-12T07:06:38.756Z,17.54
2022-09-12T07:09:07.777Z,17.62
2022-09-12T07:11:38.033Z,17.60
2022-09-12T07:14:07.807Z,17.48
2022-09-12T07:16:38.238Z,17.24
2022-09-12T07:19:08.343Z,17.17
2022-09-12T07:21:39.709Z,17.05
2022-09-12T07:24:09.697Z,17.15
2022-09-12T07:26:38.483Z,17.18
2022-09-12T07:29:34.759Z,17.16
2022-09-12T07:31:55.671Z,17.08
2022-09-12T07:34:23.497Z,17.10
2022-09-12T07:36:51.273Z,17.25
2022-09-12T07:39:19.084Z,17.32
2022-09-12T07:41:46.941Z,17.30
2022-09-12T07:44:14.738Z,17.41
2022-09-12T07:46:42.610Z,17.53
2022-09-12T07:49:13.208Z,17.71
2022-09-12T07:51:41.143Z,17.94
2022-09-12T07:54:09.250Z,18.26
2022-09-12T07:56:39.073Z,18.37
2022-09-12T07:59:07.507Z,18.48
2022-09-12T08:01:35.409Z,18.49
2022-09-12T08:04:04.864Z,18.49
2022-09-12T08:06:35.980Z,18.57
2022-09-12T08:09:05.808Z,18.56
2022-09-12T08:11:33.644Z,18.60
2022-09-12T08:14:03.015Z,18.55
2022-09-12T08:16:32.684Z,18.49
2022-09-12T08:19:02.654Z,18.44
2022-09-12T08:21:32.330Z,18.39
2022-09-12T08:24:03.585Z,18.36
2022-09-12T08:26:32.686Z,18.30
2022-09-12T08:29:00.973Z,18.30
2022-09-12T08:31:29.233Z,18.44
2022-09-12T08:33:58.392Z,18.39
2022-09-12T08:36:29.671Z,18.30
2022-09-12T08:39:00.731Z,18.23
2022-09-12T08:41:35.047Z,18.18
2022-09-12T08:44:30.899Z,18.21
2022-09-12T08:47:15.646Z,18.33
2022-09-12T08:49:52.508Z,18.67
2022-09-12T08:52:27.007Z,18.75
2022-09-12T08:54:56.461Z,18.91
2022-09-12T08:57:25.834Z,19.06
2022-09-12T08:59:54.055Z,19.00
2022-09-12T09:02:47.015Z,18.83
2022-09-12T09:05:22.401Z,18.68
2022-09-12T09:08:22.700Z,18.70
2022-09-12T09:10:54.970Z,18.64
2022-09-12T09:13:56.436Z,18.75
2022-09-12T09:16:30.604Z,18.80
2022-09-12T09:19:02.234Z,18.68
2022-09-12T09:21:38.423Z,18.79
2022-09-12T09:24:10.170Z,18.88
2022-09-12T09:26:46.076Z,18.92
2022-09-12T09:29:20.418Z,18.92
2022-09-12T09:31:50.278Z,18.98
2022-09-12T09:34:21.747Z,19.24
2022-09-12T09:36:52.351Z,19.55
2022-09-12T09:39:40.413Z,19.73
2022-09-12T09:42:19.337Z,19.62
2022-09-12T09:44:49.441Z,19.51
2022-09-12T09:47:20.208Z,19.34
2022-09-12T09:49:48.434Z,19.38
2022-09-12T09:52:22.025Z,19.50
2022-09-12T09:54:57.442Z,19.51
2022-09-12T09:57:44.276Z,19.47
2022-09-12T10:00:31.829Z,19.46
2022-09-12T10:03:11.325Z,19.60
2022-09-12T10:05:48.133Z,19.64
2022-09-12T10:08:22.365Z,19.58
2022-09-12T10:10:56.164Z,19.53
2022-09-12T10:13:35.153Z,19.59
2022-09-12T10:16:06.837Z,19.65
2022-09-12T10:18:42.340Z,19.79
2022-09-12T10:21:17.677Z,19.74
2022-09-12T10:23:47.821Z,19.66
2022-09-12T10:26:18.889Z,19.69
2022-09-12T10:28:51.714Z,19.88
2022-09-12T10:31:29.142Z,19.81
2022-09-12T10:34:01.182Z,19.70
2022-09-12T10:36:38.499Z,19.60
2022-09-12T10:39:07.732Z,19.47
2022-09-12T10:41:38.786Z,19.54
2022-09-12T10:44:10.067Z,19.71
2022-09-12T10:46:40.769Z,19.83
2022-09-12T10:49:24.252Z,20.05
2022-09-12T10:51:54.075Z,20.18
2022-09-12T10:54:25.154Z,20.06
2022-09-12T10:57:38.180Z,19.99
2022-09-12T11:00:14.458Z,20.02
2022-09-12T11:02:55.983Z,19.84
2022-09-12T11:05:37.356Z,19.70
2022-09-12T11:08:19.979Z,19.79
2022-09-12T11:10:57.104Z,19.78
2022-09-12T11:13:48.434Z,19.73
2022-09-12T11:16:29.745Z,19.77
2022-09-12T11:19:19.533Z,19.74
2022-09-12T11:22:06.468Z,19.78
2022-09-12T11:24:50.500Z,19.88
2022-09-12T11:27:34.930Z,19.80
2022-09-12T11:30:07.567Z,19.59
2022-09-12T11:33:09.926Z,19.64
2022-09-12T11:35:50.749Z,19.67
2022-09-12T11:38:52.990Z,19.68
2022-09-12T11:41:28.715Z,19.75
2022-09-12T11:44:03.602Z,19.75
2022-09-12T11:46:36.800Z,19.77
2022-09-12T11:49:16.144Z,19.76
2022-09-12T11:51:51.637Z,19.69
2022-09-12T11:54:26.261Z,19.65
2022-09-12T11:57:05.464Z,19.80
2022-09-12T11:59:41.563Z,19.94
2022-09-12T12:02:15.123Z,20.10
2022-09-12T12:04:56.951Z,20.35
2022-09-12T12:07:26.460Z,20.72
2022-09-12T12:09:55.717Z,20.73
2022-09-12T12:12:28.991Z,20.66
2022-09-12T12:14:59.061Z,20.64
2022-09-12T12:17:29.655Z,20.66
2022-09-12T12:20:05.587Z,20.80
2022-09-12T12:22:37.189Z,20.87
2022-09-12T12:25:29.410Z,20.64
2022-09-12T12:28:01.816Z,20.57
2022-09-12T12:31:01.977Z,20.42
2022-09-12T12:34:16.257Z,20.45
2022-09-12T12:36:44.563Z,20.45
2022-09-12T12:39:55.599Z,20.42
2022-09-12T12:43:05.738Z,20.47
2022-09-12T12:46:04.097Z,20.79
2022-09-12T12:48:49.447Z,20.96
2022-09-12T12:51:33.982Z,21.06
2022-09-12T12:54:04.041Z,21.04
2022-09-12T12:56:39.420Z,21.13
2022-09-12T12:59:18.040Z,21.27
2022-09-12T13:01:54.809Z,21.25
2022-09-12T13:04:25.920Z,21.42
2022-09-12T13:07:04.564Z,21.43
2022-09-12T13:09:39.650Z,21.46
2022-09-12T13:12:11.498Z,21.46
2022-09-12T13:14:51.585Z,21.38
2022-09-12T13:17:40.836Z,21.46
2022-09-12T13:20:28.235Z,21.62
2022-09-12T13:22:56.740Z,21.67
2022-09-12T13:25:29.254Z,21.60
2022-09-12T13:28:15.679Z,21.73
2022-09-12T13:30:46.529Z,21.85
2022-09-12T13:33:25.909Z,21.96
2022-09-12T13:36:25.989Z,22.06
2022-09-12T13:39:18.780Z,22.21
2022-09-12T13:42:43.324Z,22.36
2022-09-12T13:45:16.732Z,22.57
2022-09-12T13:47:45.978Z,22.71
2022-09-12T13:50:19.806Z,22.84
2022-09-12T13:52:51.592Z,22.79
2022-09-12T13:55:30.131Z,22.74
2022-09-12T13:58:00.188Z,22.80
2022-09-12T14:00:31.109Z,22.72
2022-09-12T14:03:17.564Z,22.63
2022-09-12T14:05:56.033Z,22.29
2022-09-12T14:08:24.822Z,22.36
2022-09-12T14:10:53.474Z,22.43
2022-09-12T14:13:24.733Z,22.50
2022-09-12T14:15:54.810Z,22.54
2022-09-12T14:18:26.348Z,22.52
2022-09-12T14:20:57.443Z,22.68
2022-09-12T14:23:30.097Z,22.64
2022-09-12T14:26:01.044Z,22.73
2022-09-12T14:28:30.255Z,22.81
2022-09-12T14:31:05.365Z,22.71
2022-09-12T14:33:35.762Z,22.73
2022-09-12T14:36:18.440Z,22.97
2022-09-12T14:38:50.066Z,22.90
2022-09-12T14:41:24.475Z,22.94
2022-09-12T14:43:55.540Z,22.99
2022-09-12T14:46:27.082Z,23.09
2022-09-12T14:48:58.701Z,23.09
2022-09-12T14:51:31.975Z,23.28
2022-09-12T14:53:59.840Z,23.36
2022-09-12T14:56:41.233Z,23.31
2022-09-12T14:59:30.650Z,23.26
2022-09-12T15:02:22.394Z,23.34
2022-09-12T15:04:52.032Z,23.33
2022-09-12T15:07:31.845Z,23.43
2022-09-12T15:10:01.231Z,23.51
2022-09-12T15:12:29.853Z,23.50
2022-09-12T15:15:01.863Z,23.36
2022-09-12T15:17:29.729Z,23.37
2022-09-12T15:19:57.549Z,23.35
2022-09-12T15:22:26.933Z,23.38
2022-09-12T15:24:56.458Z,23.48
2022-09-12T15:27:26.125Z,23.40
2022-09-12T15:29:54.011Z,23.40
2022-09-12T15:32:25.349Z,23.42
2022-09-12T15:34:53.517Z,23.37
2022-09-12T15:37:23.019Z,23.40
2022-09-12T15:39:52.659Z,23.49
2022-09-12T15:42:28.373Z,23.40
2022-09-12T15:45:00.575Z,23.32
2022-09-12T15:47:30.196Z,23.22
2022-09-12T15:49:57.990Z,23.23
2022-09-12T15:52:25.791Z,23.25
2022-09-12T15:54:55.000Z,23.20
2022-09-12T15:57:22.873Z,23.22
2022-09-12T15:59:50.861Z,23.10
2022-09-12T16:02:18.685Z,22.78
2022-09-12T16:04:48.026Z,22.45
2022-09-12T16:07:15.857Z,22.08
2022-09-12T16:09:43.619Z,21.92
2022-09-12T16:12:12.761Z,22.05
2022-09-12T16:14:40.566Z,22.12
2022-09-12T16:17:08.663Z,22.23
2022-09-12T16:19:36.603Z,22.30
2022-09-12T16:22:04.612Z,22.24
2022-09-12T16:24:32.590Z,22.30
2022-09-12T16:27:01.321Z,22.27
2022-09-12T16:29:30.665Z,22.23
2022-09-12T16:31:58.531Z,22.19
2022-09-12T16:34:26.381Z,21.88
2022-09-12T16:36:54.227Z,21.57
2022-09-12T16:39:22.069Z,21.20
2022-09-12T16:41:49.985Z,20.95
2022-09-12T16:44:17.789Z,20.70
2022-09-12T16:46:47.194Z,20.52
2022-09-12T16:49:15.201Z,20.43
2022-09-12T16:51:47.303Z,20.24
2022-09-12T16:54:15.704Z,20.08
2022-09-12T16:56:43.917Z,19.95
2022-09-12T16:59:16.125Z,19.74
2022-09-12T17:01:45.321Z,19.69
2022-09-12T17:04:14.518Z,19.59
2022-09-12T17:06:42.571Z,19.48
2022-09-12T17:09:11.412Z,19.37
2022-09-12T17:11:40.182Z,19.33
2022-09-12T17:14:10.342Z,19.26
2022-09-12T17:16:41.104Z,19.16
2022-09-12T17:19:10.200Z,19.10
2022-09-12T17:21:39.398Z,18.94
2022-09-12T17:24:07.286Z,18.94
2022-09-12T17:26:35.175Z,18.90
2022-09-12T17:29:03.237Z,18.88
2022-09-12T17:31:31.752Z,18.83
2022-09-12T17:34:00.746Z,18.78
2022-09-12T17:36:29.466Z,18.73
2022-09-12T17:38:59.546Z,18.67
2022-09-12T17:41:31.658Z,18.56
2022-09-12T17:44:01.292Z,18.56
2022-09-12T17:46:33.414Z,18.54
2022-09-12T17:49:02.183Z,18.50
2022-09-12T17:51:31.645Z,18.43
2022-09-12T17:54:02.534Z,18.45
2022-09-12T17:56:32.163Z,18.43
2022-09-12T17:59:00.748Z,18.36
2022-09-12T18:01:47.512Z,18.23
2022-09-12T18:04:15.620Z,18.16
2022-09-12T18:06:47.960Z,18.15
2022-09-12T18:09:19.593Z,17.98
2022-09-12T18:11:48.317Z,17.90
2022-09-12T18:14:17.291Z,17.86
2022-09-12T18:16:45.425Z,17.84
2022-09-12T18:19:13.931Z,17.85
2022-09-12T18:21:42.332Z,17.78
2022-09-12T18:24:10.603Z,17.69
2022-09-12T18:26:39.739Z,17.60
2022-09-12T18:29:07.991Z,17.50
2022-09-12T18:31:36.951Z,17.49
2022-09-12T18:34:06.118Z,17.41
2022-09-12T18:36:33.912Z,17.39
2022-09-12T18:39:01.868Z,17.36
2022-09-12T18:41:29.829Z,17.35
2022-09-12T18:44:00.954Z,17.34
2022-09-12T18:46:31.337Z,17.36
2022-09-12T18:48:59.877Z,17.35
2022-09-12T18:51:31.411Z,17.39
2022-09-12T18:54:01.089Z,17.43
2022-09-12T18:56:32.626Z,17.46
2022-09-12T18:59:05.072Z,17.45
2022-09-12T19:01:34.569Z,17.40
2022-09-12T19:04:04.716Z,17.36
2022-09-12T19:06:35.049Z,17.31
2022-09-12T19:09:07.555Z,17.24
2022-09-12T19:11:38.121Z,17.17
2022-09-12T19:14:08.046Z,17.19
2022-09-12T19:16:36.415Z,17.13
2022-09-12T19:19:04.665Z,17.08
2022-09-12T19:21:34.229Z,17.03
2022-09-12T19:24:06.882Z,17.20
2022-09-12T19:26:35.925Z,17.16
2022-09-12T19:29:04.924Z,17.28
2022-09-12T19:31:34.215Z,17.25
2022-09-12T19:34:03.159Z,17.19
2022-09-12T19:36:45.025Z,17.16
2022-09-12T19:39:13.947Z,17.18
2022-09-12T19:41:42.472Z,17.11
2022-09-12T19:44:11.437Z,17.10
2022-09-12T19:46:40.812Z,17.11
2022-09-12T19:49:10.381Z,16.98
2022-09-12T19:51:38.191Z,17.07
2022-09-12T19:54:06.061Z,17.03
2022-09-12T19:56:33.845Z,17.02
2022-09-12T19:59:01.686Z,16.98
2022-09-12T20:01:29.602Z,16.91
2022-09-12T20:03:59.139Z,16.96
2022-09-12T20:06:27.906Z,17.03
2022-09-12T20:08:56.190Z,17.04
2022-09-12T20:11:25.577Z,17.04
2022-09-12T20:13:53.687Z,16.98
2022-09-12T20:16:24.466Z,17.04
2022-09-12T20:18:57.745Z,17.03
2022-09-12T20:21:31.402Z,16.98
2022-09-12T20:24:04.870Z,16.90
2022-09-12T20:26:32.817Z,16.94
2022-09-12T20:29:01.257Z,16.92
2022-09-12T20:31:30.234Z,16.90
2022-09-12T20:33:58.453Z,16.89
2022-09-12T20:36:27.927Z,16.90
2022-09-12T20:38:57.887Z,16.83
2022-09-12T20:41:27.258Z,16.79
2022-09-12T20:43:56.357Z,16.73
2022-09-12T20:46:26.395Z,16.71
2022-09-12T20:48:54.499Z,16.68
2022-09-12T20:51:23.116Z,16.64
2022-09-12T20:53:55.280Z,16.65
2022-09-12T20:56:24.434Z,16.61
2022-09-12T20:58:52.515Z,16.57
2022-09-12T21:01:21.018Z,16.52
2022-09-12T21:03:49.801Z,16.49
2022-09-12T21:06:18.501Z,16.35
2022-09-12T21:08:47.415Z,16.37
2022-09-12T21:11:17.289Z,16.21
2022-09-12T21:13:45.156Z,16.19
2022-09-12T21:16:15.050Z,16.22
2022-09-12T21:18:43.326Z,16.32
2022-09-12T21:21:12.373Z,16.19
2022-09-12T21:23:41.205Z,16.19
2022-09-12T21:26:09.699Z,16.15
2022-09-12T21:28:38.832Z,16.16
2022-09-12T21:31:07.010Z,16.14
2022-09-12T21:33:34.848Z,16.13
2022-09-12T21:36:03.984Z,16.15
2022-09-12T21:38:32.448Z,16.14
2022-09-12T21:41:04.812Z,16.13
2022-09-12T21:43:32.783Z,16.19
2022-09-12T21:46:02.883Z,16.22
2022-09-12T21:48:31.269Z,16.23
2022-09-12T21:50:59.345Z,16.31
2022-09-12T21:53:27.261Z,16.30
2022-09-12T21:55:55.086Z,16.26
2022-09-12T21:58:22.919Z,16.12
2022-09-12T22:00:51.157Z,16.03
2022-09-12T22:03:20.430Z,15.99
2022-09-12T22:05:52.367Z,16.01
2022-09-12T22:08:20.185Z,15.99
2022-09-12T22:10:47.987Z,15.97
2022-09-12T22:13:15.806Z,15.91
2022-09-12T22:15:45.329Z,15.85
2022-09-12T22:18:13.211Z,15.83
2022-09-12T22:20:42.399Z,15.83
2022-09-12T22:23:29.993Z,15.85
2022-09-12T22:25:58.561Z,15.71
2022-09-12T22:28:26.380Z,15.67
2022-09-12T22:30:54.979Z,15.62
2022-09-12T22:33:23.133Z,15.55
2022-09-12T22:35:52.258Z,15.51
2022-09-12T22:38:20.233Z,15.43
2022-09-12T22:40:48.022Z,15.36
2022-09-12T22:43:15.805Z,15.37
2022-09-12T22:45:43.779Z,15.35
2022-09-12T22:48:11.580Z,15.31
2022-09-12T22:50:39.464Z,15.29
2022-09-12T22:53:11.493Z,15.32
2022-09-12T22:55:39.311Z,15.33
2022-09-12T22:58:07.123Z,15.31
2022-09-12T23:00:35.269Z,15.30
2022-09-12T23:03:03.182Z,15.29
2022-09-12T23:05:31.462Z,15.06
2022-09-12T23:07:59.271Z,14.94
2022-09-12T23:10:28.455Z,14.88
2022-09-12T23:12:56.484Z,14.88
2022-09-12T23:15:24.272Z,14.85
2022-09-12T23:17:52.084Z,14.91
2022-09-12T23:20:19.872Z,14.98
2022-09-12T23:22:47.675Z,14.97
2022-09-12T23:25:15.508Z,14.99
2022-09-12T23:27:44.887Z,14.96
2022-09-12T23:30:12.970Z,14.82
2022-09-12T23:32:40.857Z,14.75
2022-09-12T23:35:08.848Z,14.85
2022-09-12T23:37:36.620Z,14.85
2022-09-12T23:40:05.606Z,14.79
2022-09-12T23:42:33.541Z,14.71
2022-09-12T23:45:02.715Z,14.87
2022-09-12T23:47:30.652Z,14.84
2022-09-12T23:49:58.444Z,14.86
2022-09-12T23:52:26.236Z,14.78
2022-09-12T23:54:54.091Z,14.72
2022-09-12T23:57:21.960Z,14.69
2022-09-12T23:59:49.733Z,14.74
